createdAt,value
2022-07-25T00:00:29.844Z,100860.00
2022-07-25T00:24:57.037Z,100832.00
2022-07-25T00:27:24.513Z,100844.00
2022-07-25T00:32:32.305Z,100831.00
2022-07-25T00:34:59.149Z,100825.00
2022-07-25T00:37:25.961Z,100821.00
2022-07-25T00:39:52.869Z,100813.00
2022-07-25T00:42:19.660Z,100807.00
2022-07-25T00:44:46.518Z,100814.00
2022-07-25T00:50:18.690Z,100819.00
2022-07-25T00:56:16.078Z,100804.00
2022-07-25T00:58:53.986Z,100801.00
2022-07-25T01:09:42.311Z,100800.00
2022-07-25T01:11:01.469Z,100800.00
2022-07-25T01:13:40.611Z,100792.00
2022-07-25T01:16:26.817Z,100796.00
2022-07-25T01:19:28.219Z,100792.00
2022-07-25T01:22:30.255Z,100793.00
2022-07-25T01:28:57.846Z,100796.00
2022-07-25T01:31:59.338Z,100790.00
2022-07-25T01:34:44.521Z,100779.00
2022-07-25T01:37:22.010Z,100783.00
2022-07-25T01:39:56.328Z,100776.00
2022-07-25T01:42:32.298Z,100779.00
2022-07-25T01:45:17.707Z,100763.00
2022-07-25T01:47:50.679Z,100758.00
2022-07-25T01:50:26.209Z,100743.00
2022-07-25T01:56:02.812Z,100749.00
2022-07-25T01:59:05.747Z,100740.00
2022-07-25T02:01:49.584Z,100741.00
2022-07-25T02:05:02.289Z,100743.00
2022-07-25T02:07:34.846Z,100727.00
2022-07-25T02:10:19.699Z,100730.00
2022-07-25T02:13:00.947Z,100729.00
2022-07-25T02:15:37.627Z,100722.00
2022-07-25T02:21:30.625Z,100730.00
2022-07-25T02:24:37.972Z,100722.00
2022-07-25T02:27:11.923Z,100721.00
2022-07-25T02:30:47.547Z,100707.00
2022-07-25T02:33:07.064Z,100700.00
2022-07-25T02:35:50.913Z,100699.00
2022-07-25T02:38:44.197Z,100701.00
2022-07-25T02:41:18.230Z,100693.00
2022-07-25T02:44:29.019Z,100690.00
2022-07-25T02:47:03.402Z,100676.00
2022-07-25T02:49:45.561Z,100674.00
2022-07-25T02:52:21.645Z,100676.00
2022-07-25T02:54:59.584Z,100675.00
2022-07-25T02:57:30.719Z,100666.00
2022-07-25T03:00:03.577Z,100667.00
2022-07-25T03:03:23.431Z,100661.00
2022-07-25T03:05:55.867Z,100658.00
2022-07-25T03:08:24.168Z,100655.00
2022-07-25T03:10:57.493Z,100656.00
2022-07-25T03:13:34.561Z,100655.00
2022-07-25T03:16:30.762Z,100651.00
2022-07-25T03:19:16.731Z,100647.00
2022-07-25T03:21:46.732Z,100644.00
2022-07-25T03:24:20.319Z,100639.00
2022-07-25T03:26:59.574Z,100638.00
2022-07-25T03:29:40.224Z,100633.00
2022-07-25T03:32:37.544Z,100629.00
2022-07-25T03:35:09.941Z,100639.00
2022-07-25T03:38:02.095Z,100626.00
2022-07-25T03:40:40.042Z,100638.00
2022-07-25T03:43:19.230Z,100624.00
2022-07-25T03:45:47.018Z,100620.00
2022-07-25T03:48:52.479Z,100624.00
2022-07-25T03:51:27.062Z,100620.00
2022-07-25T03:54:10.039Z,100612.00
2022-07-25T03:56:51.078Z,100598.00
2022-07-25T03:59:27.785Z,100595.00
2022-07-25T04:02:06.810Z,100593.00
2022-07-25T04:04:50.227Z,100590.00
2022-07-25T04:07:49.098Z,100576.00
2022-07-25T04:10:43.176Z,100573.00
2022-07-25T04:13:30.807Z,100576.00
2022-07-25T04:16:31.700Z,100571.00
2022-07-25T04:25:07.590Z,100583.00
2022-07-25T04:27:43.559Z,100572.00
2022-07-25T04:30:24.649Z,100583.00
2022-07-25T04:33:04.534Z,100600.00
2022-07-25T04:35:44.101Z,100596.00
2022-07-25T04:38:27.767Z,100610.00
2022-07-25T04:41:02.343Z,100608.00
2022-07-25T04:46:25.838Z,100618.00
2022-07-25T04:49:16.504Z,100631.00
2022-07-25T04:52:12.823Z,100624.00
2022-07-25T04:55:02.657Z,100622.00
2022-07-25T04:57:41.864Z,100629.00
2022-07-25T05:01:02.836Z,100606.00
2022-07-25T05:03:50.039Z,100610.00
2022-07-25T05:06:44.721Z,100600.00
2022-07-25T05:09:41.983Z,100607.00
2022-07-25T05:13:00.332Z,100617.00
2022-07-25T05:19:19.612Z,100601.00
2022-07-25T05:25:15.044Z,100591.00
2022-07-25T05:33:45.974Z,100592.00
2022-07-25T06:25:59.398Z,100564.00
2022-07-25T06:28:46.516Z,100552.00
2022-07-25T06:31:28.195Z,100571.00
2022-07-25T06:36:37.774Z,100561.00
2022-07-25T06:39:23.318Z,100565.00
2022-07-25T06:42:01.827Z,100560.00
2022-07-25T06:44:29.014Z,100557.00
2022-07-25T06:46:56.040Z,100551.00
2022-07-25T06:58:38.744Z,100556.00
2022-07-25T07:05:46.283Z,100516.00
2022-07-25T07:09:07.345Z,100525.00
2022-07-25T07:11:50.795Z,100520.00
2022-07-25T08:52:38.732Z,100454.00
2022-07-25T08:58:57.185Z,100443.00
2022-07-25T09:01:52.559Z,100445.00
2022-07-25T09:07:17.299Z,100427.00
2022-07-25T09:09:44.680Z,100440.00
2022-07-25T09:15:52.722Z,100441.00
2022-07-25T09:18:23.855Z,100449.00
2022-07-25T09:21:20.048Z,100427.00
2022-07-25T10:14:15.023Z,100409.00
2022-07-25T10:16:48.868Z,100408.00
2022-07-25T10:20:05.946Z,100413.00
2022-07-25T10:22:57.279Z,100408.00
2022-07-25T10:26:10.103Z,100405.00
2022-07-25T10:35:52.033Z,100407.00
2022-07-25T11:26:52.789Z,100343.00
2022-07-25T11:34:06.893Z,100346.00
2022-07-25T11:37:37.635Z,100359.00
2022-07-25T11:51:39.363Z,100351.00
2022-07-25T11:57:13.255Z,100335.00
2022-07-25T12:03:49.113Z,100359.00
2022-07-25T12:10:01.599Z,100337.00
2022-07-25T12:12:28.537Z,100337.00
2022-07-25T12:14:55.338Z,100341.00
2022-07-25T12:17:22.202Z,100360.00
2022-07-25T12:19:49.050Z,100363.00
2022-07-25T12:22:27.601Z,100341.00
2022-07-25T12:26:15.928Z,100333.00
2022-07-25T12:28:18.388Z,100345.00
2022-07-25T12:35:05.505Z,100318.00
2022-07-25T13:19:03.787Z,100273.00
2022-07-25T13:24:22.537Z,100266.00
2022-07-25T13:27:15.024Z,100267.00
2022-07-25T13:30:26.681Z,100257.00
2022-07-25T13:32:55.201Z,100248.00
2022-07-25T13:35:36.510Z,100240.00
2022-07-25T13:38:12.078Z,100251.00
2022-07-25T13:40:55.584Z,100241.00
2022-07-25T13:43:45.764Z,100251.00
2022-07-25T13:51:41.422Z,100220.00
2022-07-25T13:54:24.300Z,100216.00
2022-07-25T14:11:41.328Z,100253.00
2022-07-25T14:24:04.160Z,100231.00
2022-07-25T14:30:23.287Z,100247.00
2022-07-25T19:24:18.107Z,100406.00
2022-07-25T19:26:47.958Z,100404.00
2022-07-25T19:29:26.716Z,100431.00
2022-07-25T19:31:54.228Z,100426.00
2022-07-25T19:34:21.161Z,100433.00
2022-07-25T19:36:48.873Z,100425.00
2022-07-25T19:39:17.443Z,100432.00
2022-07-25T19:41:47.271Z,100426.00
2022-07-25T19:44:14.426Z,100432.00
2022-07-25T19:46:41.404Z,100434.00
2022-07-25T19:49:08.651Z,100434.00
2022-07-25T19:51:35.785Z,100424.00
2022-07-25T19:54:03.717Z,100428.00
2022-07-25T19:56:31.480Z,100428.00
2022-07-25T19:59:04.786Z,100426.00
2022-07-25T20:01:35.705Z,100421.00
2022-07-25T20:04:05.970Z,100421.00
2022-07-25T20:06:33.422Z,100431.00
2022-07-25T20:09:10.127Z,100414.00
2022-07-25T20:11:38.461Z,100412.00
2022-07-25T20:14:05.542Z,100414.00
2022-07-25T20:16:33.896Z,100425.00
2022-07-25T21:07:31.000Z,100430.00
2022-07-25T21:09:58.571Z,100434.00
2022-07-25T21:12:28.534Z,100425.00
2022-07-25T21:14:59.137Z,100429.00
2022-07-25T21:17:25.992Z,100425.00
2022-07-25T21:19:53.638Z,100438.00
2022-07-25T21:22:20.575Z,100427.00
2022-07-25T21:24:49.418Z,100428.00
2022-07-25T21:27:17.616Z,100435.00
2022-07-25T21:29:44.992Z,100438.00
2022-07-25T21:32:13.761Z,100428.00
2022-07-25T21:34:41.307Z,100438.00
2022-07-25T21:37:08.555Z,100439.00
2022-07-25T21:39:35.654Z,100435.00
2022-07-25T21:42:02.897Z,100434.00
2022-07-25T21:44:31.234Z,100432.00
2022-07-25T21:46:58.091Z,100428.00
2022-07-25T21:49:43.859Z,100423.00
2022-07-25T21:52:13.991Z,100430.00
2022-07-25T21:54:44.312Z,100431.00
2022-07-25T21:57:13.587Z,100430.00
2022-07-25T21:59:47.489Z,100436.00
2022-07-25T22:02:14.722Z,100447.00
2022-07-25T22:04:41.558Z,100438.00
2022-07-25T22:07:08.434Z,100437.00
2022-07-25T22:09:35.427Z,100439.00
2022-07-25T22:12:02.398Z,100433.00
2022-07-25T22:14:29.214Z,100428.00
2022-07-25T22:16:56.094Z,100443.00
2022-07-25T22:19:23.313Z,100434.00
2022-07-25T22:21:50.566Z,100425.00
2022-07-25T22:24:17.621Z,100427.00
2022-07-25T22:26:44.599Z,100428.00
2022-07-25T22:29:11.950Z,100430.00
2022-07-25T22:31:39.317Z,100419.00
2022-07-25T22:34:06.573Z,100429.00
2022-07-25T22:36:33.418Z,100414.00
2022-07-25T22:39:00.338Z,100429.00
2022-07-25T22:41:27.816Z,100421.00
2022-07-25T22:43:57.926Z,100419.00
2022-07-25T22:46:34.450Z,100425.00
2022-07-25T22:49:01.580Z,100424.00
2022-07-25T22:51:29.054Z,100412.00
2022-07-25T22:53:59.861Z,100423.00
2022-07-25T22:56:27.212Z,100416.00
2022-07-25T22:58:54.700Z,100412.00
2022-07-25T23:01:22.189Z,100416.00
2022-07-25T23:03:50.183Z,100430.00
2022-07-25T23:06:18.550Z,100421.00
2022-07-25T23:08:45.702Z,100430.00
2022-07-25T23:11:12.562Z,100424.00
2022-07-25T23:13:39.500Z,100421.00
2022-07-25T23:16:10.447Z,100417.00
2022-07-25T23:18:38.142Z,100414.00
2022-07-25T23:21:05.313Z,100411.00
2022-07-25T23:23:32.511Z,100415.00
2022-07-25T23:25:59.366Z,100414.00
2022-07-25T23:28:26.218Z,100418.00
2022-07-25T23:30:53.045Z,100425.00
2022-07-25T23:33:25.307Z,100428.00
2022-07-25T23:35:53.631Z,100424.00
2022-07-25T23:38:21.400Z,100423.00
2022-07-25T23:40:48.829Z,100420.00
2022-07-25T23:43:21.886Z,100423.00
2022-07-25T23:46:02.889Z,100422.00
2022-07-25T23:48:29.856Z,100417.00
2022-07-25T23:50:56.862Z,100420.00
2022-07-25T23:53:23.958Z,100423.00
2022-07-25T23:55:57.105Z,100424.00
2022-07-25T23:58:23.976Z,100417.00
